Time;durP1;ratioP1;P1;durP2;ratioP2;P2;SDS_P1;SDS_P2;PMS_P1;PMS_P2;Temp;Humidity;BMP_temperature;BMP_pressure;BME280_temperature;BME280_humidity;BME280_pressure;Samples;Min_cycle;Max_cycle;Signal;HPM_P1;HPM_P2
2021/12/13 06:03:17;;;;;;;1.10;1.00;;;19.70;40.90;;;21.97;30.85;102072.59;5171707;27;20210;-76
2021/12/13 06:05:52;;;;;;;0.88;0.82;;;20.00;40.80;;;22.50;29.92;102086.09;5115630;27;20043;-76
2021/12/13 06:08:31;;;;;;;1.00;1.00;;;20.10;40.60;;;22.80;29.62;102083.72;5131627;27;20118;-76
2021/12/13 06:11:11;;;;;;;0.93;0.93;;;20.10;40.40;;;23.04;29.29;102080.75;5130782;27;20390;-76
2021/12/13 06:13:43;;;;;;;0.90;0.90;;;20.20;40.30;;;23.23;29.10;102078.88;5114962;27;20050;-76
2021/12/13 06:16:39;;;;;;;0.90;0.90;;;20.30;40.30;;;23.35;28.92;102076.50;5150678;27;20053;-76
2021/12/13 06:19:17;;;;;;;0.80;0.80;;;20.30;40.20;;;23.49;28.57;102095.34;5114200;27;20444;-76
2021/12/13 06:22:02;;;;;;;1.20;1.10;;;20.30;40.10;;;23.57;28.30;102092.25;5130256;27;20062;-76
2021/12/13 06:24:44;;;;;;;1.00;1.00;;;20.40;40.00;;;23.61;28.16;102093.81;5151052;27;20058;-76
2021/12/13 06:27:17;;;;;;;1.10;1.00;;;20.40;39.90;;;23.66;28.21;102087.25;5097660;27;20047;-76
2021/12/13 06:30:03;;;;;;;0.98;0.90;;;20.40;39.90;;;23.73;28.01;102081.59;5127739;27;20051;-76
2021/12/13 06:32:59;;;;;;;0.80;0.80;;;20.40;39.90;;;23.78;28.13;102092.91;5115492;27;20100;-76
2021/12/13 06:35:42;;;;;;;1.33;1.00;;;20.40;39.80;;;23.82;27.85;102098.03;5115501;27;20499;-76
2021/12/13 06:38:20;;;;;;;1.00;1.00;;;20.50;39.90;;;23.84;27.98;102101.47;5149976;27;20083;-76
2021/12/13 06:40:53;;;;;;;0.98;0.95;;;20.40;39.80;;;23.82;27.71;102095.34;5150463;27;20054;-76
2021/12/13 06:43:50;;;;;;;1.15;1.05;;;20.50;39.80;;;23.90;27.71;102105.59;5131922;27;20411;-76
2021/12/13 06:46:22;;;;;;;1.10;1.00;;;20.50;39.80;;;23.91;27.70;102104.66;5129550;27;20059;-75
2021/12/13 06:49:06;;;;;;;1.15;1.05;;;20.50;39.80;;;23.92;27.42;102116.19;5150023;27;20054;-76
2021/12/13 06:51:49;;;;;;;1.10;1.00;;;20.50;39.80;;;23.94;27.47;102116.97;5149794;27;20053;-76
2021/12/13 06:54:32;;;;;;;0.95;0.90;;;20.50;39.80;;;23.94;27.53;102107.19;5131363;27;20495;-76
2021/12/13 06:57:10;;;;;;;1.10;1.00;;;20.50;39.70;;;23.95;27.54;102114.22;5131025;27;20055;-76
2021/12/13 06:59:53;;;;;;;1.35;1.05;;;20.50;39.70;;;23.97;27.40;102122.16;5131430;27;20475;-75
2021/12/13 07:02:27;;;;;;;1.30;0.98;;;20.50;39.70;;;23.95;27.23;102124.06;5110967;28;20118;-76
2021/12/13 07:04:57;;;;;;;1.27;1.02;;;20.50;39.70;;;23.99;27.29;102126.47;5117709;28;20047;-75
2021/12/13 07:07:34;;;;;;;4.25;1.20;;;20.50;39.70;;;23.97;27.46;102125.72;5135569;28;20500;-76
2021/12/13 07:10:08;;;;;;;0.80;0.80;;;20.50;39.70;;;24.00;27.26;102130.84;5116528;28;20047;-76
2021/12/13 07:13:07;;;;;;;0.98;0.88;;;20.50;39.70;;;23.98;27.39;102132.75;5100436;28;20400;-76
2021/12/13 07:15:44;;;;;;;1.08;0.98;;;20.50;39.70;;;23.98;27.18;102138.09;5099886;28;20051;-76
2021/12/13 07:18:15;;;;;;;1.10;1.10;;;20.50;39.70;;;24.04;27.06;102147.59;5116171;28;20494;-77
2021/12/13 07:20:55;;;;;;;0.95;0.90;;;20.50;39.70;;;24.03;27.38;102145.88;5117014;28;20079;-77
2021/12/13 07:23:21;;;;;;;1.02;0.95;;;20.50;39.70;;;24.01;27.04;102137.09;5117414;28;20088;-76
2021/12/13 07:25:50;;;;;;;1.23;1.10;;;20.50;39.70;;;24.04;27.19;102151.13;5099005;28;20054;-76
2021/12/13 07:28:36;;;;;;;1.10;1.00;;;20.50;39.70;;;24.00;27.20;102140.69;5116703;28;20054;-76
2021/12/13 07:31:06;;;;;;;1.20;1.10;;;20.50;39.80;;;24.03;27.15;102148.53;5099704;28;20043;-77
2021/12/13 07:33:42;;;;;;;3.40;1.52;;;20.50;39.80;;;24.05;27.13;102152.84;5135482;28;20047;-76
2021/12/13 07:36:23;;;;;;;2.88;1.15;;;20.50;39.80;;;24.04;27.33;102152.97;5117016;28;20075;-76
2021/12/13 07:38:58;;;;;;;1.30;1.10;;;20.50;39.80;;;24.03;27.01;102159.22;5099686;28;20054;-76
2021/12/13 07:41:44;;;;;;;2.33;1.40;;;20.50;39.90;;;24.03;27.01;102148.53;5099724;28;20057;-76
2021/12/13 07:44:31;;;;;;;2.58;1.20;;;20.50;39.90;;;24.04;27.11;102159.16;5100360;28;20059;-76
2021/12/13 07:47:19;;;;;;;1.30;1.17;;;20.50;39.90;;;23.98;27.28;102159.47;5116687;28;20047;-76
2021/12/13 07:49:51;;;;;;;1.88;1.40;;;20.50;39.90;;;24.03;27.18;102162.75;5132142;28;20075;-76
2021/12/13 07:52:31;;;;;;;2.50;1.30;;;20.50;39.90;;;24.02;27.37;102154.81;5099549;28;20047;-76
2021/12/13 07:55:17;;;;;;;2.70;1.05;;;20.50;39.90;;;24.04;27.18;102164.50;5116643;28;20075;-76
2021/12/13 07:57:44;;;;;;;1.30;1.20;;;20.50;39.90;;;24.05;27.16;102165.34;5099887;28;20062;-76
2021/12/13 08:00:20;;;;;;;2.53;1.00;;;20.50;39.90;;;24.04;27.08;102175.19;5082940;28;20043;-76
2021/12/13 08:03:04;;;;;;;2.67;1.33;;;20.50;39.90;;;24.03;27.06;102176.13;5116519;28;20483;-76
2021/12/13 08:05:48;;;;;;;2.03;1.45;;;20.50;39.90;;;24.04;27.16;102182.34;5116527;28;20062;-76
2021/12/13 08:08:26;;;;;;;2.00;1.50;;;20.50;39.90;;;24.05;27.20;102181.38;5099265;28;20047;-76
2021/12/13 08:10:59;;;;;;;2.15;1.10;;;20.50;39.90;;;24.07;27.17;102181.28;5116310;28;20047;-76
2021/12/13 08:13:31;;;;;;;1.33;1.00;;;20.50;39.90;;;24.05;27.16;102192.91;5116338;28;20050;-77
2021/12/13 08:16:06;;;;;;;1.48;1.23;;;20.50;39.90;;;24.02;27.16;102187.75;5099063;28;20051;-76
2021/12/13 08:18:41;;;;;;;1.75;1.40;;;20.50;39.90;;;24.06;27.14;102199.16;5112977;28;20488;-76
2021/12/13 08:21:24;;;;;;;1.23;1.08;;;20.50;39.90;;;24.05;27.18;102197.41;5099163;28;20563;-76
2021/12/13 08:23:56;;;;;;;1.33;1.20;;;20.50;39.90;;;24.08;26.99;102199.06;5099323;28;20487;-76
2021/12/13 08:26:40;;;;;;;2.40;1.15;;;20.50;39.90;;;24.06;27.19;102199.16;5099185;28;20123;-76
2021/12/13 08:29:21;;;;;;;1.42;1.27;;;20.50;39.90;;;24.02;27.26;102194.91;5114657;28;20050;-76
2021/12/13 08:31:52;;;;;;;2.10;1.10;;;20.50;39.90;;;24.07;27.25;102194.66;5115166;28;20051;-76
2021/12/13 08:34:34;;;;;;;1.48;1.10;;;20.50;39.80;;;24.08;27.11;102204.41;5080460;28;20066;-76
2021/12/13 08:37:10;;;;;;;1.67;1.15;;;20.60;39.90;;;24.07;27.30;102202.66;5099282;28;20039;-76
2021/12/13 08:39:37;;;;;;;1.70;1.23;;;20.50;39.90;;;24.07;26.97;102208.00;5131449;28;20047;-76
2021/12/13 08:42:16;;;;;;;1.15;1.05;;;20.50;39.90;;;24.07;27.09;102210.69;5115843;28;20407;-76
2021/12/13 08:44:53;;;;;;;1.60;1.30;;;20.60;40.00;;;24.09;27.09;102209.69;5115956;28;20527;-76
2021/12/13 08:47:31;;;;;;;1.95;1.30;;;20.60;40.00;;;24.07;27.17;102208.88;5134367;28;20493;-76
2021/12/13 08:50:07;;;;;;;1.77;1.40;;;20.60;40.00;;;24.09;27.08;102211.47;5097633;28;20047;-76
2021/12/13 08:52:46;;;;;;;1.48;1.30;;;20.50;39.90;;;24.08;27.18;102204.41;5115994;28;20051;-76
2021/12/13 08:55:24;;;;;;;2.25;1.40;;;20.60;40.00;;;24.10;27.03;102214.06;5115745;28;20051;-75
2021/12/13 08:58:12;;;;;;;2.10;1.45;;;20.50;39.90;;;24.12;27.04;102220.16;5097019;28;20043;-75
2021/12/13 09:01:03;;;;;;;2.40;1.48;;;20.60;40.00;;;24.10;27.13;102218.53;5115923;28;20047;-76
2021/12/13 09:03:43;;;;;;;3.15;1.50;;;20.60;40.00;;;24.06;27.12;102212.50;5134028;28;20126;-75
2021/12/13 09:06:27;;;;;;;1.83;1.25;;;20.60;40.00;;;24.07;27.07;102219.56;5113688;28;20047;-76
2021/12/13 09:09:14;;;;;;;2.83;1.50;;;20.60;40.00;;;24.12;27.19;102222.84;5098442;28;20507;-76
2021/12/13 09:12:08;;;;;;;1.88;1.50;;;20.60;40.00;;;24.14;27.02;102223.66;5096345;28;20050;-76
2021/12/13 09:14:39;;;;;;;3.42;1.40;;;20.60;40.00;;;24.17;27.02;102235.97;5098436;28;20043;-76
2021/12/13 09:17:33;;;;;;;1.80;1.33;;;20.60;40.00;;;24.16;27.10;102239.59;5133710;28;20055;-76
2021/12/13 09:20:21;;;;;;;2.47;1.33;;;20.60;40.10;;;24.15;27.15;102237.88;5098251;28;20288;-76
2021/12/13 09:23:10;;;;;;;1.13;1.02;;;20.60;40.20;;;24.10;27.16;102230.09;5114834;28;20051;-76
2021/12/13 09:26:14;;;;;;;2.28;1.30;;;20.60;40.10;;;24.18;27.20;102248.41;5080935;28;20503;-76
2021/12/13 09:28:58;;;;;;;1.92;1.35;;;20.60;40.10;;;24.14;27.01;102231.66;5108627;28;20054;-76
2021/12/13 09:31:34;;;;;;;3.83;1.60;;;20.60;40.20;;;24.16;27.04;102235.09;5114926;28;20047;-76
2021/12/13 09:34:16;;;;;;;1.77;1.50;;;20.60;40.20;;;24.15;27.14;102233.38;5115118;28;20138;-76
2021/12/13 09:36:46;;;;;;;2.08;1.50;;;20.60;40.20;;;24.15;27.19;102230.69;5097900;28;20131;-76
2021/12/13 09:39:30;;;;;;;1.85;1.58;;;20.60;40.70;;;24.17;27.22;102231.50;5079882;28;20402;-76
2021/12/13 09:42:07;;;;;;;2.70;1.30;;;20.60;40.20;;;24.17;26.98;102222.59;5114904;28;20051;-76
2021/12/13 09:44:49;;;;;;;1.42;1.30;;;20.60;40.20;;;24.13;27.21;102219.25;5098053;28;20047;-76
2021/12/13 09:47:33;;;;;;;2.10;1.40;;;20.60;40.10;;;24.18;27.02;102227.88;5113574;28;20456;-76
2021/12/13 09:49:58;;;;;;;5.10;1.33;;;20.60;40.10;;;24.21;27.00;102229.53;5098111;28;20039;-76
2021/12/13 09:52:32;;;;;;;2.22;1.65;;;20.70;40.10;;;24.19;26.82;102224.25;5133120;28;20395;-75
2021/12/13 09:55:09;;;;;;;1.92;1.48;;;20.70;40.20;;;24.20;27.19;102228.63;5115017;28;20051;-76
2021/12/13 09:57:43;;;;;;;1.77;1.30;;;20.70;40.20;;;24.18;27.14;102227.88;5114924;28;20376;-76
2021/12/13 10:00:23;;;;;;;2.13;1.30;;;20.60;40.10;;;24.18;27.10;102229.69;5114938;28;20070;-76
2021/12/13 10:02:55;;;;;;;4.80;1.50;;;20.70;40.10;;;24.15;26.90;102225.34;5080750;28;20049;-76
2021/12/13 10:05:29;;;;;;;2.42;1.25;;;20.60;40.20;;;24.19;27.29;102226.03;5096946;28;20476;-76
2021/12/13 10:08:02;;;;;;;2.08;1.15;;;20.70;40.10;;;24.21;27.14;102240.22;5095742;28;20511;-76
2021/12/13 10:10:38;;;;;;;3.63;1.70;;;20.70;40.20;;;24.22;27.16;102236.56;5114777;28;20047;-76
2021/12/13 10:13:13;;;;;;;2.55;1.40;;;20.60;40.10;;;24.20;27.00;102241.16;5115008;28;20479;-76
2021/12/13 10:15:52;;;;;;;3.47;1.42;;;20.70;40.10;;;24.14;27.12;102226.31;5097744;28;20096;-77
2021/12/13 10:18:27;;;;;;;1.98;1.52;;;20.70;40.10;;;24.21;27.08;102238.41;5114722;28;20135;-76
2021/12/13 10:20:59;;;;;;;2.33;1.50;;;20.60;40.10;;;24.23;27.08;102241.00;5096977;28;20097;-76
2021/12/13 10:23:31;;;;;;;2.88;1.25;;;20.60;40.10;;;24.26;27.22;102247.97;5132587;28;20050;-76
2021/12/13 10:26:01;;;;;;;2.20;1.30;;;20.60;40.10;;;24.23;27.05;102244.50;5097272;28;20100;-76
2021/12/13 10:28:37;;;;;;;2.03;1.30;;;20.70;40.10;;;24.22;27.20;102240.13;5097312;28;20047;-76
2021/12/13 10:31:18;;;;;;;1.88;1.38;;;20.70;40.10;;;24.25;27.15;102248.94;5097331;28;20059;-76
2021/12/13 10:33:47;;;;;;;2.05;1.25;;;20.70;40.10;;;24.23;27.06;102233.81;5110250;28;20056;-75
2021/12/13 10:36:15;;;;;;;1.42;1.20;;;20.70;40.10;;;24.21;27.02;102238.41;5114050;28;20054;-75
2021/12/13 10:38:49;;;;;;;1.42;1.33;;;20.70;40.10;;;24.23;27.03;102247.19;5116181;28;20483;-75
2021/12/13 10:41:49;;;;;;;1.65;1.27;;;20.70;40.10;;;24.28;26.94;102249.63;5101150;28;20055;-75
2021/12/13 10:44:26;;;;;;;1.50;1.33;;;20.70;40.10;;;24.28;27.11;102246.94;5094250;28;20044;-75
2021/12/13 10:46:56;;;;;;;2.67;1.20;;;20.70;40.70;;;24.29;26.97;102250.47;5101355;28;20050;-75
2021/12/13 10:49:26;;;;;;;1.50;1.20;;;20.70;40.10;;;24.24;27.00;102242.72;5136125;28;20051;-76
2021/12/13 10:52:18;;;;;;;1.67;1.30;;;20.70;40.20;;;24.22;27.07;102234.78;5100443;28;20059;-75
2021/12/13 10:54:51;;;;;;;2.88;1.20;;;20.70;40.40;;;24.31;27.01;102245.94;5100424;28;20520;-76
2021/12/13 10:57:29;;;;;;;4.00;1.10;;;20.80;40.30;;;24.31;26.96;102245.94;5083903;28;20066;-76
2021/12/13 10:59:57;;;;;;;4.72;1.58;;;20.80;40.30;;;24.29;27.01;102240.66;5098586;28;20051;-76
2021/12/13 11:02:32;;;;;;;3.97;1.60;;;20.80;40.30;;;24.29;27.14;102246.00;5117279;28;20484;-76
2021/12/13 11:05:14;;;;;;;1.45;1.08;;;20.80;40.30;;;24.29;27.15;102240.66;5117475;28;20364;-76
2021/12/13 11:07:41;;;;;;;1.80;1.30;;;20.80;40.20;;;24.30;27.22;102236.16;5100123;28;20096;-76
2021/12/13 11:10:17;;;;;;;1.80;1.60;;;20.80;40.20;;;24.30;26.92;102246.88;5117108;28;20047;-76
2021/12/13 11:12:49;;;;;;;2.75;1.33;;;20.70;40.20;;;24.28;27.05;102241.59;5116544;28;20059;-77
2021/12/13 11:15:27;;;;;;;3.33;1.40;;;20.80;40.30;;;24.28;27.07;102241.59;5097194;28;20051;-77
2021/12/13 11:17:55;;;;;;;3.47;1.60;;;20.80;40.20;;;24.31;27.20;102232.56;5116743;28;20054;-77
2021/12/13 11:20:36;;;;;;;2.38;1.40;;;20.80;40.20;;;24.31;26.99;102246.78;5099397;28;20508;-77
2021/12/13 11:23:03;;;;;;;1.80;1.20;;;20.80;40.20;;;24.32;27.10;102235.13;5116546;28;20043;-76
2021/12/13 11:25:39;;;;;;;2.97;1.52;;;20.80;40.20;;;24.31;27.00;102232.56;5082033;28;20492;-77
2021/12/13 11:28:07;;;;;;;3.90;1.45;;;20.80;40.20;;;24.30;27.00;102223.66;5078624;28;20089;-78
2021/12/13 11:30:36;;;;;;;2.10;1.50;;;20.80;40.20;;;24.29;27.13;102224.63;5099106;28;20487;-77
2021/12/13 11:33:36;;;;;;;2.47;1.30;;;20.80;40.30;;;24.32;27.20;102223.56;5099274;28;20067;-78
2021/12/13 11:37:03;;;;;;;2.00;1.47;;;20.80;40.30;;;24.31;27.14;102216.53;5115936;28;20066;-77
2021/12/13 11:40:09;;;;;;;3.15;1.30;;;20.80;40.30;;;24.26;27.03;102211.44;5088605;28;20111;-77
2021/12/13 11:43:19;;;;;;;3.80;1.40;;;20.70;40.30;;;24.30;27.03;102207.63;5134496;28;20503;-77
2021/12/13 11:46:37;;;;;;;3.28;2.03;;;20.80;40.40;;;24.29;27.27;102213.94;5115889;28;20103;-77
2021/12/13 11:49:31;;;;;;;4.03;1.75;;;20.70;40.40;;;24.28;27.22;102211.34;5115719;28;20051;-77
2021/12/13 11:52:37;;;;;;;2.85;1.70;;;20.70;40.50;;;24.30;27.12;102214.78;5098989;28;20133;-77
2021/12/13 11:55:39;;;;;;;4.72;1.50;;;20.70;40.60;;;24.28;27.26;102214.88;5089281;28;20468;-78
2021/12/13 11:58:50;;;;;;;2.95;1.50;;;20.70;40.60;;;24.27;27.25;102221.16;5116118;28;20480;-77
2021/12/13 12:02:01;;;;;;;3.38;1.70;;;20.70;40.70;;;24.29;27.35;102227.31;5098767;28;20047;-77
2021/12/13 12:05:06;;;;;;;2.13;1.47;;;20.70;40.80;;;24.28;27.24;102230.06;5115866;28;20107;-77
2021/12/13 12:08:07;;;;;;;2.47;1.85;;;20.70;40.90;;;24.25;27.28;102211.50;5134207;28;20753;-76
2021/12/13 12:11:06;;;;;;;2.97;1.60;;;20.60;40.90;;;24.25;27.49;102216.84;5115511;28;20104;-77
2021/12/13 12:14:04;;;;;;;6.25;1.70;;;20.70;41.00;;;24.25;27.45;102223.06;5114722;28;20048;-77
2021/12/13 12:16:37;;;;;;;3.40;1.50;;;20.60;41.00;;;24.25;27.37;102224.88;5115591;28;20059;-77
2021/12/13 12:19:08;;;;;;;4.53;1.52;;;20.70;41.10;;;24.25;27.31;102224.88;5114844;28;20082;-77
2021/12/13 12:21:59;;;;;;;3.67;1.50;;;20.70;41.00;;;24.26;27.35;102226.56;5098716;28;20050;-77
2021/12/13 12:24:42;;;;;;;2.38;1.38;;;20.60;41.10;;;24.23;27.54;102223.13;5098435;28;20138;-77
2021/12/13 12:27:15;;;;;;;2.70;1.55;;;20.70;41.20;;;24.24;27.59;102226.69;5115585;28;20051;-77
2021/12/13 12:29:48;;;;;;;3.13;1.67;;;20.70;41.20;;;24.28;27.55;102222.03;5115656;28;20040;-77
2021/12/13 12:32:30;;;;;;;5.32;1.92;;;20.60;41.20;;;24.30;27.40;102220.13;5098679;28;20051;-77
2021/12/13 12:35:47;;;;;;;5.93;2.47;;;20.70;41.20;;;24.31;27.61;102221.88;5115717;28;20047;-78
2021/12/13 12:38:33;;;;;;;4.85;1.88;;;20.70;41.30;;;24.29;27.67;102216.59;5133566;28;20051;-77
2021/12/13 12:41:11;;;;;;;5.32;1.50;;;20.60;41.30;;;24.29;27.38;102221.94;5115155;28;20043;-77
2021/12/13 12:43:52;;;;;;;6.82;1.88;;;20.60;41.30;;;24.26;27.67;102216.78;5115227;28;20054;-77
2021/12/13 12:46:21;;;;;;;6.90;1.90;;;20.60;41.90;;;24.29;27.58;102215.72;5098899;28;20126;-77
2021/12/13 12:48:54;;;;;;;3.95;1.67;;;20.70;41.40;;;24.25;27.67;102215.03;5112230;28;20282;-78
2021/12/13 12:51:30;;;;;;;4.13;2.20;;;20.60;41.40;;;24.23;27.65;102209.75;5114974;28;20419;-77
2021/12/13 12:54:03;;;;;;;5.70;2.13;;;20.70;41.40;;;24.27;27.80;102214.94;5133502;28;20099;-77
2021/12/13 12:56:36;;;;;;;9.18;1.85;;;20.70;41.40;;;24.24;27.63;102218.66;5114906;28;20104;-77
2021/12/13 12:59:14;;;;;;;3.65;2.05;;;20.70;41.50;;;24.23;27.78;102216.94;5113486;28;20492;-76
2021/12/13 13:01:44;;;;;;;4.93;1.83;;;20.70;41.50;;;24.28;27.68;102222.03;5114115;28;20058;-78
2021/12/13 13:04:26;;;;;;;2.97;1.80;;;20.60;41.50;;;24.23;27.84;102217.78;5097288;28;20055;-79
2021/12/13 13:06:58;;;;;;;4.93;1.90;;;20.70;41.60;;;24.27;27.70;102225.66;5133012;28;20051;-78
2021/12/13 13:09:38;;;;;;;6.13;2.20;;;20.70;41.60;;;24.22;27.90;102213.41;5114702;28;20407;-78
2021/12/13 13:12:05;;;;;;;6.57;2.00;;;20.60;41.60;;;24.27;27.83;102226.50;5113109;28;20101;-78
2021/12/13 13:14:32;;;;;;;5.47;2.22;;;20.60;41.60;;;24.24;27.83;102213.31;5113759;28;20043;-79
2021/12/13 13:17:06;;;;;;;4.60;1.90;;;20.60;41.60;;;24.26;27.87;102223.91;5097362;28;20047;-78
2021/12/13 13:19:41;;;;;;;5.85;2.05;;;20.70;42.20;;;24.27;27.97;102226.50;5114330;28;20053;-77
2021/12/13 13:22:16;;;;;;;6.03;2.00;;;20.60;41.60;;;24.23;27.80;102220.47;5079254;28;20093;-78
2021/12/13 13:24:46;;;;;;;3.45;1.55;;;20.70;41.70;;;24.22;27.99;102218.75;5097643;28;20088;-77
2021/12/13 13:27:13;;;;;;;7.70;1.90;;;20.70;41.70;;;24.27;27.81;102218.47;5097698;28;20061;-78
2021/12/13 13:29:40;;;;;;;5.07;1.98;;;20.60;41.70;;;24.25;27.98;102222.19;5080542;28;20043;-78
2021/12/13 13:32:12;;;;;;;4.88;2.00;;;20.60;41.70;;;24.25;27.80;102214.19;5112944;28;20047;-78
2021/12/13 13:34:57;;;;;;;4.22;1.80;;;20.70;41.70;;;24.24;28.07;102218.66;5114774;28;20055;-78
2021/12/13 13:37:34;;;;;;;6.93;2.00;;;20.70;41.80;;;24.27;28.05;102222.97;5080520;28;20054;-77
2021/12/13 13:40:19;;;;;;;5.45;1.65;;;20.60;41.80;;;24.25;27.79;102224.88;5113171;28;20047;-80
2021/12/13 13:43:03;;;;;;;8.65;2.15;;;20.70;41.80;;;24.21;27.85;102214.34;5114011;28;20054;-77
2021/12/13 13:45:42;;;;;;;5.20;2.00;;;20.60;41.80;;;24.23;28.02;102212.44;5097252;28;20050;-77
2021/12/13 13:48:18;;;;;;;5.10;2.00;;;20.70;41.90;;;24.26;27.87;102222.13;5095924;28;20044;-77
2021/12/13 13:50:52;;;;;;;5.55;1.98;;;20.60;41.90;;;24.26;28.05;102229.25;5080058;28;20101;-78
2021/12/13 13:53:31;;;;;;;5.72;2.15;;;20.60;41.80;;;24.25;27.91;102224.88;5096847;28;20451;-78
2021/12/13 13:56:12;;;;;;;8.40;2.67;;;20.70;41.90;;;24.23;28.10;102223.13;5113919;28;20193;-77
2021/12/13 13:58:47;;;;;;;5.90;2.05;;;20.60;41.90;;;24.23;27.86;102223.13;5093677;28;20046;-78
2021/12/13 14:01:22;;;;;;;6.20;2.45;;;20.70;41.90;;;24.21;27.84;102221.50;5112757;28;20416;-77
2021/12/13 14:03:54;;;;;;;4.35;2.13;;;20.60;41.90;;;24.22;27.97;102231.22;5096840;28;20048;-77
2021/12/13 14:06:39;;;;;;;6.05;2.05;;;20.60;41.90;;;24.24;28.10;102234.72;5096632;28;20077;-78
2021/12/13 14:09:14;;;;;;;6.32;2.20;;;20.60;41.90;;;24.22;27.99;102231.22;5132213;28;20097;-77
2021/12/13 14:12:01;;;;;;;6.07;1.98;;;20.70;42.00;;;24.22;28.13;102226.78;5095190;28;20185;-77
2021/12/13 14:14:54;;;;;;;4.50;2.17;;;20.70;42.00;;;24.26;27.99;102230.13;5117499;28;20051;-77
2021/12/13 14:17:42;;;;;;;4.53;2.28;;;20.60;41.90;;;24.23;28.17;102230.28;5100532;28;20126;-78
2021/12/13 14:20:50;;;;;;;5.88;2.10;;;20.60;41.90;;;24.25;28.02;102227.53;5117622;28;20464;-79
2021/12/13 14:23:23;;;;;;;3.13;1.90;;;20.70;42.00;;;24.26;27.85;102234.59;4999369;28;20045;-79
2021/12/13 14:26:05;;;;;;;5.72;2.08;;;20.60;41.90;;;24.25;27.96;102235.56;5015106;28;20057;-78
2021/12/13 14:29:01;;;;;;;4.97;2.50;;;20.70;41.90;;;24.24;28.13;102232.03;5080652;28;20404;-77
2021/12/13 14:31:59;;;;;;;4.00;2.17;;;20.60;41.80;;;24.25;28.16;102235.56;5115591;28;20055;-78
2021/12/13 14:34:25;;;;;;;5.13;2.33;;;20.60;41.80;;;24.25;28.19;102230.22;5108950;28;20062;-78
2021/12/13 14:36:58;;;;;;;3.70;1.67;;;20.70;42.00;;;24.20;28.20;102231.31;5117034;28;20047;-77
2021/12/13 14:39:33;;;;;;;5.38;1.80;;;20.60;41.90;;;24.24;27.92;102234.72;5098237;28;20040;-78
2021/12/13 14:42:15;;;;;;;3.45;2.20;;;20.60;41.90;;;24.24;28.08;102237.38;5116509;28;20058;-78
2021/12/13 14:44:56;;;;;;;4.65;2.15;;;20.60;41.80;;;24.25;27.96;102235.56;5078153;28;20130;-77
2021/12/13 14:47:26;;;;;;;;;;;20.70;41.90;;;24.36;27.94;102241.19;5099866;28;20043;-76
2021/12/13 14:50:02;;;;;;;5.55;2.05;;;20.60;41.90;;;24.28;27.81;102246.94;5114698;28;21064;-77
2021/12/13 14:52:42;;;;;;;6.93;2.30;;;20.60;41.80;;;24.23;28.17;102246.34;5116714;28;20053;-76
2021/12/13 14:55:12;;;;;;;3.88;2.10;;;20.60;41.90;;;24.26;27.98;102242.63;5100946;28;20054;-77
2021/12/13 14:57:38;;;;;;;4.43;2.35;;;20.60;41.90;;;24.28;28.16;102246.09;5117614;28;20054;-77
2021/12/13 15:00:18;;;;;;;4.20;2.20;;;20.70;42.00;;;24.23;27.92;102244.50;5116159;28;20590;-77
2021/12/13 15:02:50;;;;;;;5.53;2.60;;;20.70;42.00;;;24.22;28.12;102240.13;5115804;28;20088;-77
2021/12/13 15:05:23;;;;;;;6.75;2.58;;;20.60;41.90;;;24.20;28.09;102242.00;5117676;28;20055;-78
2021/12/13 15:07:50;;;;;;;5.15;2.22;;;20.60;41.90;;;24.23;27.98;102247.19;5117741;28;20479;-77
2021/12/13 15:10:33;;;;;;;5.15;2.50;;;20.60;41.90;;;24.16;28.10;102229.75;5117384;28;20055;-77
2021/12/13 15:13:02;;;;;;;5.40;2.40;;;20.60;41.80;;;24.20;28.20;102238.47;5117943;28;20043;-77
2021/12/13 15:15:35;;;;;;;4.72;2.47;;;20.60;41.90;;;24.22;28.00;102250.81;5117238;28;20050;-77
2021/12/13 15:18:10;;;;;;;7.40;2.10;;;20.60;41.80;;;24.23;28.09;102259.69;5134886;28;20201;-77
2021/12/13 15:20:52;;;;;;;5.63;1.85;;;20.70;41.80;;;24.22;28.01;102257.97;5114707;28;20116;-77
2021/12/13 15:23:29;;;;;;;5.90;2.10;;;20.70;41.80;;;24.22;28.19;102252.59;5116842;27;20142;-77
2021/12/13 15:26:30;;;;;;;5.88;2.38;;;20.60;41.80;;;24.25;27.96;102267.63;5099414;28;20043;-77
2021/12/13 15:29:03;;;;;;;4.57;2.03;;;20.70;41.80;;;24.22;27.93;102253.50;5095469;28;20078;-77
2021/12/13 15:31:40;;;;;;;3.22;1.98;;;20.60;41.70;;;24.23;28.01;102257.03;5135461;28;20483;-77
2021/12/13 15:34:14;;;;;;;6.00;2.30;;;20.60;41.70;;;24.19;27.95;102244.75;5099327;28;20055;-77
2021/12/13 15:36:40;;;;;;;4.63;2.10;;;20.70;41.80;;;24.19;28.03;102248.31;5097551;28;20127;-77
2021/12/13 15:39:11;;;;;;;6.60;2.38;;;20.70;41.80;;;24.21;27.84;102254.44;5135133;28;20051;-77
2021/12/13 15:41:39;;;;;;;4.97;2.45;;;20.60;41.70;;;24.22;27.91;102250.81;5115426;28;20059;-77
2021/12/13 15:44:11;;;;;;;4.50;1.92;;;20.70;41.70;;;24.23;27.83;102249.84;5099440;28;20040;-77
2021/12/13 15:46:46;;;;;;;9.80;2.38;;;20.70;41.70;;;24.21;28.08;102245.56;5099961;28;20051;-77
2021/12/13 15:49:27;;;;;;;5.80;2.03;;;20.60;41.70;;;24.21;28.08;102248.22;5115856;28;20047;-77
2021/12/13 15:52:18;;;;;;;3.08;1.90;;;20.60;41.70;;;24.22;27.97;102248.16;5100249;28;20052;-77
2021/12/13 15:54:55;;;;;;;4.18;2.10;;;20.60;41.60;;;24.21;28.04;102246.41;5100003;28;20078;-77
2021/12/13 15:57:32;;;;;;;3.92;1.90;;;20.60;41.60;;;24.19;27.84;102244.75;5099467;28;20051;-77
2021/12/13 16:00:04;;;;;;;5.35;2.13;;;20.60;41.60;;;24.23;27.96;102252.53;5099934;28;20469;-77
2021/12/13 16:02:39;;;;;;;5.03;2.00;;;20.60;41.60;;;24.25;27.98;102256.94;5101793;28;20051;-77
2021/12/13 16:05:08;;;;;;;4.35;2.13;;;20.60;41.60;;;24.20;27.99;102251.84;5116623;28;20043;-76
2021/12/13 16:07:34;;;;;;;5.78;2.22;;;20.60;41.50;;;24.25;28.03;102264.97;5115463;28;20039;-77
2021/12/13 16:10:08;;;;;;;2.95;1.83;;;20.70;41.60;;;24.21;28.12;102254.44;5114945;28;20083;-77
2021/12/13 16:12:46;;;;;;;6.15;1.92;;;20.70;41.50;;;24.24;27.98;102256.09;5098580;28;20051;-77
2021/12/13 16:15:20;;;;;;;4.72;2.53;;;20.60;41.50;;;24.23;28.07;102257.03;5099852;28;20051;-77
2021/12/13 16:17:54;;;;;;;3.55;1.98;;;20.60;41.50;;;24.23;28.07;102255.19;5080693;28;20046;-77
2021/12/13 16:20:38;;;;;;;5.43;2.30;;;20.70;41.60;;;24.20;27.95;102249.16;5116567;28;20047;-77
2021/12/13 16:23:21;;;;;;;3.70;2.10;;;20.60;41.60;;;24.24;27.92;102264.09;5099103;28;20055;-77
2021/12/13 16:25:51;;;;;;;5.07;2.40;;;20.60;41.60;;;24.20;27.91;102246.50;5098389;28;20130;-77
2021/12/13 16:28:27;;;;;;;4.25;2.13;;;20.60;41.50;;;24.21;27.93;102250.91;5097508;28;20075;-77
2021/12/13 16:31:12;;;;;;;4.50;2.10;;;20.60;41.60;;;24.25;28.00;102260.47;5116196;28;20047;-77
2021/12/13 16:33:44;;;;;;;3.33;2.05;;;20.60;41.60;;;24.25;27.96;102257.78;5115861;28;20130;-77
2021/12/13 16:36:21;;;;;;;3.50;1.77;;;20.60;41.60;;;24.22;27.96;102256.16;5115202;28;20063;-77
2021/12/13 16:39:01;;;;;;;7.38;2.00;;;20.60;41.50;;;24.25;28.10;102256.94;5134625;28;20145;-77
2021/12/13 16:41:29;;;;;;;4.43;2.05;;;20.60;41.50;;;24.23;28.09;102257.88;5098778;28;20139;-77
2021/12/13 16:44:04;;;;;;;6.65;2.00;;;20.60;41.50;;;24.24;27.71;102253.41;5115343;28;20157;-77
2021/12/13 16:46:32;;;;;;;5.30;1.90;;;20.60;41.50;;;24.26;27.94;102258.66;5115486;28;20446;-77
2021/12/13 16:49:27;;;;;;;3.08;1.65;;;20.60;41.50;;;24.25;28.03;102260.47;5115038;28;20051;-77
2021/12/13 16:52:05;;;;;;;5.43;2.00;;;20.70;41.50;;;24.20;27.92;102258.03;5102290;28;20483;-77
2021/12/13 16:54:49;;;;;;;3.50;1.70;;;20.70;41.50;;;24.26;27.86;102255.97;5082109;28;20096;-77
2021/12/13 16:57:35;;;;;;;3.13;1.73;;;20.70;41.50;;;24.21;27.77;102256.25;5098637;28;20070;-77
2021/12/13 17:00:13;;;;;;;4.40;2.08;;;20.60;41.50;;;24.22;27.85;102241.91;5098594;28;20453;-77
2021/12/13 17:02:42;;;;;;;6.55;2.13;;;20.60;41.50;;;24.27;27.99;102255.03;5097270;28;20441;-77
2021/12/13 17:05:15;;;;;;;6.15;1.80;;;20.60;41.40;;;24.26;28.04;102250.63;5116056;28;20061;-77